Eden, New York
Current Conditions -  °F | °C
As of 12:53 PM on Saturday 25 Oct 2014 (Local Time) from KDKK Reporting Station
Light Rain Light Rain  
Wind Chill: 18°   Ceiling: 6000
Heat Index: 18°   Visibility: 10mi
Dew Point:   Wind: 14mph
Humidity: 56%   Direction: 240°WSW
Pressure: 29.71"   Gusts: 31mph
Location:  42.65°N, 78.9°W
Report Text: KDKK 251653Z AUTO 24012G27KT 10SM -RA BKN060 18/09 A2971 RMK AO2 PK WND 22031/1613 SLP059 P0000 T01780089
Loading
Personal Weather Stations






























Interactive Weather Map
Tropical Storm Tracking
New forecast layout! Learn more

10-Day Weather Forecast

Advertisements
Track Severe Weather on mobile